Current Weather

Chicago/Rockford Intl

Rockford, Illinois (KRFD)

Report from: Thursday, August 18, 2022 10:54 PM CDT
Current time: Friday, August 19, 2022 12:02 AM CDT

Nearby weather
Weather history
Weather forecast

Temperature18.3°C (64.9°F)
Dew point16.7°C (62.1°F)
Winds 3 kts (1.5 m/s, 3.5 mph) South-Southeast (160°)
Visibility10 mi. (16.1 km)
Clouds Sky clear
Altimeter29.95 in.Hg (1014 mB)
Relative humidity90 %
Density altitude615 ft. (188 m)
Sea-level pressure101.4 kPa (1014 mB, 29.93 in.Hg)
Remarks Automated weather observing station with precipitation discriminator
Flight conditions Visual Meteorological Conditions
Raw dataKRFD 190354Z 16003KT 10SM CLR 18/17 A2995 RMK AO2 SLP136 T01830167
An unhandled exception has occurred. See browser dev tools for details. Reload 🗙